sensor_id;sensor_type;location;lat;lon;timestamp;P1;durP1;ratioP1;P2;durP2;ratioP2
60831;SDS011;46665;51.558;-0.448;2022-09-30T00:00:21;3.10;;;1.40;;
60831;SDS011;46665;51.558;-0.448;2022-09-30T00:03:06;3.00;;;1.52;;
60831;SDS011;46665;51.558;-0.448;2022-09-30T00:06:02;3.63;;;1.50;;
60831;SDS011;46665;51.558;-0.448;2022-09-30T00:08:48;2.53;;;0.95;;
60831;SDS011;46665;51.558;-0.448;2022-09-30T00:11:33;4.35;;;0.73;;
60831;SDS011;46665;51.558;-0.448;2022-09-30T00:14:19;0.90;;;0.90;;
60831;SDS011;46665;51.558;-0.448;2022-09-30T00:17:05;2.78;;;1.33;;
60831;SDS011;46665;51.558;-0.448;2022-09-30T00:19:49;3.33;;;1.77;;
60831;SDS011;46665;51.558;-0.448;2022-09-30T00:22:33;1.65;;;1.33;;
60831;SDS011;46665;51.558;-0.448;2022-09-30T00:25:17;10.55;;;1.77;;
60831;SDS011;46665;51.558;-0.448;2022-09-30T00:28:01;1.92;;;1.75;;
60831;SDS011;46665;51.558;-0.448;2022-09-30T00:30:45;3.60;;;1.48;;
60831;SDS011;46665;51.558;-0.448;2022-09-30T00:33:30;2.42;;;1.65;;
60831;SDS011;46665;51.558;-0.448;2022-09-30T00:36:14;4.90;;;1.52;;
60831;SDS011;46665;51.558;-0.448;2022-09-30T00:38:58;4.38;;;2.05;;
60831;SDS011;46665;51.558;-0.448;2022-09-30T00:41:43;5.22;;;1.75;;
60831;SDS011;46665;51.558;-0.448;2022-09-30T00:47:37;6.65;;;1.50;;
60831;SDS011;46665;51.558;-0.448;2022-09-30T00:50:42;1.80;;;1.40;;
60831;SDS011;46665;51.558;-0.448;2022-09-30T00:53:34;3.10;;;1.17;;
60831;SDS011;46665;51.558;-0.448;2022-09-30T00:56:28;2.42;;;1.60;;
60831;SDS011;46665;51.558;-0.448;2022-09-30T00:59:16;2.22;;;1.08;;
60831;SDS011;46665;51.558;-0.448;2022-09-30T01:02:06;0.80;;;0.80;;
60831;SDS011;46665;51.558;-0.448;2022-09-30T01:04:52;2.83;;;1.27;;
60831;SDS011;46665;51.558;-0.448;2022-09-30T01:07:38;3.10;;;1.47;;
60831;SDS011;46665;51.558;-0.448;2022-09-30T01:10:22;4.63;;;1.45;;
60831;SDS011;46665;51.558;-0.448;2022-09-30T01:13:06;1.02;;;0.80;;
60831;SDS011;46665;51.558;-0.448;2022-09-30T01:21:55;2.42;;;0.98;;
60831;SDS011;46665;51.558;-0.448;2022-09-30T01:37:58;2.25;;;1.00;;
60831;SDS011;46665;51.558;-0.448;2022-09-30T01:47:15;1.23;;;0.88;;
60831;SDS011;46665;51.558;-0.448;2022-09-30T01:50:04;0.80;;;0.80;;
60831;SDS011;46665;51.558;-0.448;2022-09-30T01:53:00;2.15;;;1.02;;
60831;SDS011;46665;51.558;-0.448;2022-09-30T01:59:36;1.15;;;1.00;;
60831;SDS011;46665;51.558;-0.448;2022-09-30T02:02:29;1.45;;;1.15;;
60831;SDS011;46665;51.558;-0.448;2022-09-30T02:05:17;0.75;;;0.75;;
60831;SDS011;46665;51.558;-0.448;2022-09-30T02:08:20;1.27;;;1.05;;
60831;SDS011;46665;51.558;-0.448;2022-09-30T02:11:32;1.92;;;1.10;;
60831;SDS011;46665;51.558;-0.448;2022-09-30T02:14:17;1.20;;;0.85;;
60831;SDS011;46665;51.558;-0.448;2022-09-30T02:17:25;1.90;;;0.98;;
60831;SDS011;46665;51.558;-0.448;2022-09-30T02:23:08;4.15;;;1.10;;
60831;SDS011;46665;51.558;-0.448;2022-09-30T02:26:06;1.17;;;1.08;;
60831;SDS011;46665;51.558;-0.448;2022-09-30T02:29:05;3.53;;;0.90;;
60831;SDS011;46665;51.558;-0.448;2022-09-30T02:31:54;0.82;;;0.82;;
60831;SDS011;46665;51.558;-0.448;2022-09-30T02:34:51;1.50;;;0.80;;
60831;SDS011;46665;51.558;-0.448;2022-09-30T02:37:40;1.75;;;0.88;;
60831;SDS011;46665;51.558;-0.448;2022-09-30T02:40:33;3.55;;;1.30;;
60831;SDS011;46665;51.558;-0.448;2022-09-30T02:43:27;1.50;;;0.95;;
60831;SDS011;46665;51.558;-0.448;2022-09-30T02:46:24;1.00;;;1.00;;
60831;SDS011;46665;51.558;-0.448;2022-09-30T02:58:57;1.17;;;0.85;;
60831;SDS011;46665;51.558;-0.448;2022-09-30T03:01:41;8.25;;;0.70;;
60831;SDS011;46665;51.558;-0.448;2022-09-30T03:04:27;1.20;;;1.10;;
60831;SDS011;46665;51.558;-0.448;2022-09-30T03:07:16;1.40;;;1.30;;
60831;SDS011;46665;51.558;-0.448;2022-09-30T03:10:05;2.22;;;1.00;;
60831;SDS011;46665;51.558;-0.448;2022-09-30T03:16:32;4.75;;;1.13;;
60831;SDS011;46665;51.558;-0.448;2022-09-30T03:28:34;3.28;;;1.83;;
60831;SDS011;46665;51.558;-0.448;2022-09-30T03:34:26;1.42;;;1.10;;
60831;SDS011;46665;51.558;-0.448;2022-09-30T03:43:34;1.98;;;1.30;;
60831;SDS011;46665;51.558;-0.448;2022-09-30T03:46:33;1.88;;;1.48;;
60831;SDS011;46665;51.558;-0.448;2022-09-30T03:49:22;1.63;;;1.00;;
60831;SDS011;46665;51.558;-0.448;2022-09-30T03:52:09;1.40;;;1.23;;
60831;SDS011;46665;51.558;-0.448;2022-09-30T03:54:56;1.60;;;1.48;;
60831;SDS011;46665;51.558;-0.448;2022-09-30T03:57:43;1.95;;;1.35;;
60831;SDS011;46665;51.558;-0.448;2022-09-30T04:00:27;2.50;;;1.85;;
60831;SDS011;46665;51.558;-0.448;2022-09-30T04:03:11;2.15;;;1.33;;
60831;SDS011;46665;51.558;-0.448;2022-09-30T04:05:54;1.48;;;1.25;;
60831;SDS011;46665;51.558;-0.448;2022-09-30T04:08:38;1.33;;;1.13;;
60831;SDS011;46665;51.558;-0.448;2022-09-30T04:11:22;4.63;;;2.00;;
60831;SDS011;46665;51.558;-0.448;2022-09-30T04:14:07;1.98;;;1.65;;
60831;SDS011;46665;51.558;-0.448;2022-09-30T04:16:51;6.22;;;1.90;;
60831;SDS011;46665;51.558;-0.448;2022-09-30T04:19:35;2.40;;;1.77;;
60831;SDS011;46665;51.558;-0.448;2022-09-30T04:22:22;1.88;;;1.50;;
60831;SDS011;46665;51.558;-0.448;2022-09-30T04:25:06;2.80;;;2.10;;
60831;SDS011;46665;51.558;-0.448;2022-09-30T04:27:51;4.15;;;2.53;;
60831;SDS011;46665;51.558;-0.448;2022-09-30T04:30:36;4.00;;;1.58;;
60831;SDS011;46665;51.558;-0.448;2022-09-30T04:33:20;3.65;;;2.08;;
60831;SDS011;46665;51.558;-0.448;2022-09-30T04:36:04;2.45;;;2.15;;
60831;SDS011;46665;51.558;-0.448;2022-09-30T04:38:49;4.20;;;2.63;;
60831;SDS011;46665;51.558;-0.448;2022-09-30T04:41:33;2.42;;;2.08;;
60831;SDS011;46665;51.558;-0.448;2022-09-30T04:44:17;1.88;;;1.75;;
60831;SDS011;46665;51.558;-0.448;2022-09-30T04:47:01;2.67;;;2.47;;
60831;SDS011;46665;51.558;-0.448;2022-09-30T04:49:46;4.03;;;2.53;;
60831;SDS011;46665;51.558;-0.448;2022-09-30T04:52:30;5.90;;;3.58;;
60831;SDS011;46665;51.558;-0.448;2022-09-30T04:55:14;6.80;;;2.88;;
60831;SDS011;46665;51.558;-0.448;2022-09-30T04:57:59;5.53;;;3.47;;
60831;SDS011;46665;51.558;-0.448;2022-09-30T05:00:43;3.75;;;2.90;;
60831;SDS011;46665;51.558;-0.448;2022-09-30T05:03:28;9.80;;;3.90;;
60831;SDS011;46665;51.558;-0.448;2022-09-30T05:06:12;3.92;;;2.67;;
60831;SDS011;46665;51.558;-0.448;2022-09-30T05:08:57;5.32;;;3.60;;
60831;SDS011;46665;51.558;-0.448;2022-09-30T05:11:41;5.28;;;4.47;;
60831;SDS011;46665;51.558;-0.448;2022-09-30T05:14:25;3.90;;;3.40;;
60831;SDS011;46665;51.558;-0.448;2022-09-30T05:17:09;3.90;;;3.38;;
60831;SDS011;46665;51.558;-0.448;2022-09-30T05:19:53;7.28;;;3.90;;
60831;SDS011;46665;51.558;-0.448;2022-09-30T05:22:37;6.43;;;3.60;;
60831;SDS011;46665;51.558;-0.448;2022-09-30T05:25:21;8.20;;;4.07;;
60831;SDS011;46665;51.558;-0.448;2022-09-30T05:28:06;7.40;;;3.63;;
60831;SDS011;46665;51.558;-0.448;2022-09-30T05:30:58;7.43;;;4.18;;
60831;SDS011;46665;51.558;-0.448;2022-09-30T05:33:44;9.18;;;3.97;;
60831;SDS011;46665;51.558;-0.448;2022-09-30T05:36:28;5.70;;;4.25;;
60831;SDS011;46665;51.558;-0.448;2022-09-30T05:39:12;7.50;;;4.63;;
60831;SDS011;46665;51.558;-0.448;2022-09-30T05:41:57;8.15;;;3.95;;
60831;SDS011;46665;51.558;-0.448;2022-09-30T05:44:41;8.65;;;3.67;;
60831;SDS011;46665;51.558;-0.448;2022-09-30T05:47:25;9.63;;;4.88;;
60831;SDS011;46665;51.558;-0.448;2022-09-30T05:50:09;10.13;;;4.82;;
60831;SDS011;46665;51.558;-0.448;2022-09-30T05:52:53;5.65;;;4.32;;
60831;SDS011;46665;51.558;-0.448;2022-09-30T05:55:37;7.22;;;3.20;;
60831;SDS011;46665;51.558;-0.448;2022-09-30T05:58:21;7.40;;;3.70;;
60831;SDS011;46665;51.558;-0.448;2022-09-30T06:01:09;6.68;;;3.92;;
60831;SDS011;46665;51.558;-0.448;2022-09-30T06:03:54;5.65;;;3.58;;
60831;SDS011;46665;51.558;-0.448;2022-09-30T06:06:38;14.10;;;3.33;;
60831;SDS011;46665;51.558;-0.448;2022-09-30T06:09:24;9.35;;;3.28;;
60831;SDS011;46665;51.558;-0.448;2022-09-30T06:12:10;5.05;;;2.95;;
60831;SDS011;46665;51.558;-0.448;2022-09-30T06:14:54;7.07;;;2.83;;
60831;SDS011;46665;51.558;-0.448;2022-09-30T06:17:38;7.45;;;3.45;;
60831;SDS011;46665;51.558;-0.448;2022-09-30T06:20:25;3.60;;;2.08;;
60831;SDS011;46665;51.558;-0.448;2022-09-30T06:23:09;2.83;;;2.28;;
60831;SDS011;46665;51.558;-0.448;2022-09-30T06:25:54;3.55;;;2.42;;
60831;SDS011;46665;51.558;-0.448;2022-09-30T06:28:38;8.07;;;3.03;;
60831;SDS011;46665;51.558;-0.448;2022-09-30T06:31:23;3.78;;;3.20;;
60831;SDS011;46665;51.558;-0.448;2022-09-30T06:34:13;5.28;;;2.95;;
60831;SDS011;46665;51.558;-0.448;2022-09-30T06:36:57;6.03;;;3.03;;
60831;SDS011;46665;51.558;-0.448;2022-09-30T06:39:42;4.65;;;2.42;;
60831;SDS011;46665;51.558;-0.448;2022-09-30T06:42:27;5.32;;;2.47;;
60831;SDS011;46665;51.558;-0.448;2022-09-30T06:45:12;5.60;;;2.63;;
60831;SDS011;46665;51.558;-0.448;2022-09-30T06:47:57;4.53;;;2.22;;
60831;SDS011;46665;51.558;-0.448;2022-09-30T06:50:42;5.07;;;3.30;;
60831;SDS011;46665;51.558;-0.448;2022-09-30T06:53:26;4.13;;;2.35;;
60831;SDS011;46665;51.558;-0.448;2022-09-30T06:56:11;9.65;;;4.68;;
60831;SDS011;46665;51.558;-0.448;2022-09-30T06:58:55;6.00;;;3.53;;
60831;SDS011;46665;51.558;-0.448;2022-09-30T07:01:39;1.67;;;1.40;;
60831;SDS011;46665;51.558;-0.448;2022-09-30T07:04:24;7.32;;;2.47;;
60831;SDS011;46665;51.558;-0.448;2022-09-30T07:07:08;3.95;;;2.28;;
60831;SDS011;46665;51.558;-0.448;2022-09-30T07:09:52;3.78;;;2.45;;
60831;SDS011;46665;51.558;-0.448;2022-09-30T07:12:37;2.92;;;2.42;;
60831;SDS011;46665;51.558;-0.448;2022-09-30T07:15:21;4.63;;;2.97;;
60831;SDS011;46665;51.558;-0.448;2022-09-30T07:18:05;5.25;;;2.60;;
60831;SDS011;46665;51.558;-0.448;2022-09-30T07:20:50;4.70;;;3.63;;
60831;SDS011;46665;51.558;-0.448;2022-09-30T07:23:36;6.50;;;2.35;;
60831;SDS011;46665;51.558;-0.448;2022-09-30T07:26:20;5.00;;;2.97;;
60831;SDS011;46665;51.558;-0.448;2022-09-30T07:29:05;5.80;;;3.30;;
60831;SDS011;46665;51.558;-0.448;2022-09-30T07:31:49;15.65;;;3.03;;
60831;SDS011;46665;51.558;-0.448;2022-09-30T07:34:34;10.30;;;4.28;;
60831;SDS011;46665;51.558;-0.448;2022-09-30T07:37:19;7.22;;;3.92;;
60831;SDS011;46665;51.558;-0.448;2022-09-30T07:40:04;4.32;;;3.00;;
60831;SDS011;46665;51.558;-0.448;2022-09-30T07:42:50;4.93;;;3.77;;
60831;SDS011;46665;51.558;-0.448;2022-09-30T07:45:35;6.22;;;3.78;;
60831;SDS011;46665;51.558;-0.448;2022-09-30T07:48:20;5.65;;;2.55;;
60831;SDS011;46665;51.558;-0.448;2022-09-30T07:51:27;6.53;;;3.00;;
60831;SDS011;46665;51.558;-0.448;2022-09-30T07:54:17;8.43;;;3.45;;
60831;SDS011;46665;51.558;-0.448;2022-09-30T07:57:03;9.88;;;3.60;;
60831;SDS011;46665;51.558;-0.448;2022-09-30T07:59:48;8.73;;;4.25;;
60831;SDS011;46665;51.558;-0.448;2022-09-30T08:02:32;5.15;;;3.80;;
60831;SDS011;46665;51.558;-0.448;2022-09-30T08:05:16;9.55;;;4.57;;
60831;SDS011;46665;51.558;-0.448;2022-09-30T08:08:00;18.42;;;6.85;;
60831;SDS011;46665;51.558;-0.448;2022-09-30T08:10:44;10.93;;;5.35;;
60831;SDS011;46665;51.558;-0.448;2022-09-30T08:13:28;17.73;;;7.35;;
60831;SDS011;46665;51.558;-0.448;2022-09-30T08:16:12;10.40;;;5.30;;
60831;SDS011;46665;51.558;-0.448;2022-09-30T08:18:57;13.60;;;5.57;;
60831;SDS011;46665;51.558;-0.448;2022-09-30T08:21:43;9.60;;;5.45;;
60831;SDS011;46665;51.558;-0.448;2022-09-30T08:24:28;16.48;;;7.93;;
60831;SDS011;46665;51.558;-0.448;2022-09-30T08:27:12;9.65;;;5.90;;
60831;SDS011;46665;51.558;-0.448;2022-09-30T08:29:56;12.45;;;4.75;;
60831;SDS011;46665;51.558;-0.448;2022-09-30T08:32:40;8.88;;;4.70;;
60831;SDS011;46665;51.558;-0.448;2022-09-30T08:35:25;8.40;;;4.03;;
60831;SDS011;46665;51.558;-0.448;2022-09-30T08:38:08;11.50;;;5.10;;
60831;SDS011;46665;51.558;-0.448;2022-09-30T08:41:44;7.30;;;4.68;;
60831;SDS011;46665;51.558;-0.448;2022-09-30T08:53:29;8.68;;;4.72;;
60831;SDS011;46665;51.558;-0.448;2022-09-30T09:05:04;16.70;;;4.68;;
60831;SDS011;46665;51.558;-0.448;2022-09-30T09:14:05;7.82;;;4.82;;
60831;SDS011;46665;51.558;-0.448;2022-09-30T09:17:12;13.93;;;5.18;;
60831;SDS011;46665;51.558;-0.448;2022-09-30T09:23:15;9.70;;;5.75;;
60831;SDS011;46665;51.558;-0.448;2022-09-30T09:25:59;9.48;;;4.50;;
60831;SDS011;46665;51.558;-0.448;2022-09-30T09:28:45;10.30;;;4.57;;
60831;SDS011;46665;51.558;-0.448;2022-09-30T09:31:33;5.63;;;3.78;;
60831;SDS011;46665;51.558;-0.448;2022-09-30T09:34:17;9.38;;;5.35;;
60831;SDS011;46665;51.558;-0.448;2022-09-30T09:46:41;4.70;;;4.10;;
60831;SDS011;46665;51.558;-0.448;2022-09-30T09:49:51;7.28;;;4.22;;
60831;SDS011;46665;51.558;-0.448;2022-09-30T09:52:58;8.48;;;4.65;;
60831;SDS011;46665;51.558;-0.448;2022-09-30T09:55:54;8.15;;;4.53;;
60831;SDS011;46665;51.558;-0.448;2022-09-30T09:58:43;7.72;;;5.70;;
60831;SDS011;46665;51.558;-0.448;2022-09-30T10:01:52;6.90;;;5.07;;
60831;SDS011;46665;51.558;-0.448;2022-09-30T10:04:36;9.48;;;5.82;;
60831;SDS011;46665;51.558;-0.448;2022-09-30T10:07:33;9.57;;;4.53;;
60831;SDS011;46665;51.558;-0.448;2022-09-30T10:10:18;7.35;;;4.13;;
60831;SDS011;46665;51.558;-0.448;2022-09-30T10:13:03;13.68;;;5.55;;
60831;SDS011;46665;51.558;-0.448;2022-09-30T10:15:47;11.07;;;5.57;;
60831;SDS011;46665;51.558;-0.448;2022-09-30T10:18:34;7.72;;;4.50;;
60831;SDS011;46665;51.558;-0.448;2022-09-30T10:21:21;9.23;;;4.90;;
60831;SDS011;46665;51.558;-0.448;2022-09-30T10:27:27;7.40;;;4.50;;
60831;SDS011;46665;51.558;-0.448;2022-09-30T10:30:18;6.80;;;4.85;;
60831;SDS011;46665;51.558;-0.448;2022-09-30T10:39:00;9.40;;;3.88;;
60831;SDS011;46665;51.558;-0.448;2022-09-30T10:41:48;5.35;;;3.80;;
60831;SDS011;46665;51.558;-0.448;2022-09-30T10:44:42;6.30;;;3.92;;
60831;SDS011;46665;51.558;-0.448;2022-09-30T10:47:42;5.00;;;3.30;;
60831;SDS011;46665;51.558;-0.448;2022-09-30T10:50:28;6.43;;;3.53;;
60831;SDS011;46665;51.558;-0.448;2022-09-30T10:53:14;5.45;;;3.13;;
60831;SDS011;46665;51.558;-0.448;2022-09-30T10:56:04;3.03;;;2.63;;
60831;SDS011;46665;51.558;-0.448;2022-09-30T10:58:50;7.38;;;2.28;;
60831;SDS011;46665;51.558;-0.448;2022-09-30T11:01:40;3.15;;;2.90;;
60831;SDS011;46665;51.558;-0.448;2022-09-30T11:04:37;7.00;;;3.33;;
60831;SDS011;46665;51.558;-0.448;2022-09-30T11:25:26;3.03;;;1.95;;
60831;SDS011;46665;51.558;-0.448;2022-09-30T11:41:08;2.35;;;1.50;;
60831;SDS011;46665;51.558;-0.448;2022-09-30T11:50:24;1.10;;;1.00;;
60831;SDS011;46665;51.558;-0.448;2022-09-30T11:59:20;1.48;;;0.80;;
60831;SDS011;46665;51.558;-0.448;2022-09-30T12:05:37;2.00;;;1.10;;
60831;SDS011;46665;51.558;-0.448;2022-09-30T12:08:29;1.63;;;0.93;;
60831;SDS011;46665;51.558;-0.448;2022-09-30T12:11:38;1.85;;;0.95;;
60831;SDS011;46665;51.558;-0.448;2022-09-30T12:14:33;1.20;;;1.00;;
60831;SDS011;46665;51.558;-0.448;2022-09-30T12:23:19;2.33;;;0.83;;
60831;SDS011;46665;51.558;-0.448;2022-09-30T12:26:12;0.60;;;0.60;;
60831;SDS011;46665;51.558;-0.448;2022-09-30T12:28:59;0.55;;;0.52;;
60831;SDS011;46665;51.558;-0.448;2022-09-30T12:32:22;2.05;;;0.82;;
60831;SDS011;46665;51.558;-0.448;2022-09-30T12:41:37;11.00;;;1.00;;
60831;SDS011;46665;51.558;-0.448;2022-09-30T12:47:52;0.73;;;0.50;;
60831;SDS011;46665;51.558;-0.448;2022-09-30T12:50:44;1.10;;;0.82;;
60831;SDS011;46665;51.558;-0.448;2022-09-30T12:53:32;0.70;;;0.52;;
60831;SDS011;46665;51.558;-0.448;2022-09-30T12:56:21;1.77;;;0.65;;
60831;SDS011;46665;51.558;-0.448;2022-09-30T12:59:11;0.73;;;0.73;;
60831;SDS011;46665;51.558;-0.448;2022-09-30T13:01:56;0.40;;;0.40;;
60831;SDS011;46665;51.558;-0.448;2022-09-30T13:04:43;0.50;;;0.50;;
60831;SDS011;46665;51.558;-0.448;2022-09-30T13:07:28;0.95;;;0.57;;
60831;SDS011;46665;51.558;-0.448;2022-09-30T13:10:26;0.50;;;0.50;;
60831;SDS011;46665;51.558;-0.448;2022-09-30T13:16:07;0.50;;;0.40;;
60831;SDS011;46665;51.558;-0.448;2022-09-30T13:21:36;0.70;;;0.70;;
60831;SDS011;46665;51.558;-0.448;2022-09-30T13:24:20;0.50;;;0.50;;
60831;SDS011;46665;51.558;-0.448;2022-09-30T13:27:53;0.50;;;0.50;;
60831;SDS011;46665;51.558;-0.448;2022-09-30T13:31:16;0.40;;;0.40;;
60831;SDS011;46665;51.558;-0.448;2022-09-30T13:34:04;0.40;;;0.40;;
60831;SDS011;46665;51.558;-0.448;2022-09-30T13:37:00;0.40;;;0.32;;
60831;SDS011;46665;51.558;-0.448;2022-09-30T13:39:46;3.13;;;0.50;;
60831;SDS011;46665;51.558;-0.448;2022-09-30T13:42:37;0.38;;;0.38;;
60831;SDS011;46665;51.558;-0.448;2022-09-30T13:45:32;1.50;;;0.30;;
60831;SDS011;46665;51.558;-0.448;2022-09-30T13:48:21;0.40;;;0.40;;
60831;SDS011;46665;51.558;-0.448;2022-09-30T13:51:11;1.02;;;0.40;;
60831;SDS011;46665;51.558;-0.448;2022-09-30T13:54:01;0.40;;;0.25;;
60831;SDS011;46665;51.558;-0.448;2022-09-30T13:56:55;0.68;;;0.60;;
60831;SDS011;46665;51.558;-0.448;2022-09-30T13:59:42;2.53;;;0.30;;
60831;SDS011;46665;51.558;-0.448;2022-09-30T14:02:39;2.47;;;0.75;;
60831;SDS011;46665;51.558;-0.448;2022-09-30T14:08:51;0.70;;;0.30;;
60831;SDS011;46665;51.558;-0.448;2022-09-30T14:24:24;2.30;;;0.63;;
60831;SDS011;46665;51.558;-0.448;2022-09-30T14:27:29;0.50;;;0.25;;
60831;SDS011;46665;51.558;-0.448;2022-09-30T14:30:26;0.40;;;0.40;;
60831;SDS011;46665;51.558;-0.448;2022-09-30T14:33:15;2.67;;;0.85;;
60831;SDS011;46665;51.558;-0.448;2022-09-30T14:36:16;1.80;;;0.50;;
60831;SDS011;46665;51.558;-0.448;2022-09-30T14:39:04;0.40;;;0.40;;
60831;SDS011;46665;51.558;-0.448;2022-09-30T14:41:58;0.95;;;0.43;;
60831;SDS011;46665;51.558;-0.448;2022-09-30T14:44:44;0.30;;;0.30;;
60831;SDS011;46665;51.558;-0.448;2022-09-30T14:47:33;1.33;;;0.30;;
60831;SDS011;46665;51.558;-0.448;2022-09-30T14:50:22;1.30;;;0.55;;
60831;SDS011;46665;51.558;-0.448;2022-09-30T14:53:22;0.30;;;0.30;;
60831;SDS011;46665;51.558;-0.448;2022-09-30T14:56:32;3.42;;;0.40;;
60831;SDS011;46665;51.558;-0.448;2022-09-30T14:59:19;5.57;;;0.73;;
60831;SDS011;46665;51.558;-0.448;2022-09-30T15:02:13;0.65;;;0.65;;
60831;SDS011;46665;51.558;-0.448;2022-09-30T15:05:03;1.48;;;0.35;;
60831;SDS011;46665;51.558;-0.448;2022-09-30T15:07:49;0.30;;;0.30;;
60831;SDS011;46665;51.558;-0.448;2022-09-30T15:10:34;0.40;;;0.40;;
60831;SDS011;46665;51.558;-0.448;2022-09-30T15:13:18;0.30;;;0.30;;
60831;SDS011;46665;51.558;-0.448;2022-09-30T15:16:20;0.63;;;0.63;;
60831;SDS011;46665;51.558;-0.448;2022-09-30T15:19:11;4.60;;;1.15;;
60831;SDS011;46665;51.558;-0.448;2022-09-30T15:22:08;1.77;;;0.68;;
60831;SDS011;46665;51.558;-0.448;2022-09-30T15:24:55;0.30;;;0.30;;
60831;SDS011;46665;51.558;-0.448;2022-09-30T15:27:41;0.75;;;0.38;;
60831;SDS011;46665;51.558;-0.448;2022-09-30T15:30:26;3.80;;;0.60;;
60831;SDS011;46665;51.558;-0.448;2022-09-30T15:33:16;0.47;;;0.32;;
60831;SDS011;46665;51.558;-0.448;2022-09-30T15:36:06;4.03;;;1.05;;
60831;SDS011;46665;51.558;-0.448;2022-09-30T15:38:56;1.55;;;0.40;;
60831;SDS011;46665;51.558;-0.448;2022-09-30T15:41:40;1.08;;;0.50;;
60831;SDS011;46665;51.558;-0.448;2022-09-30T15:44:37;1.23;;;0.38;;
60831;SDS011;46665;51.558;-0.448;2022-09-30T15:47:25;1.13;;;0.50;;
60831;SDS011;46665;51.558;-0.448;2022-09-30T15:53:21;0.55;;;0.25;;
60831;SDS011;46665;51.558;-0.448;2022-09-30T16:00:00;1.75;;;0.40;;
60831;SDS011;46665;51.558;-0.448;2022-09-30T16:06:04;0.40;;;0.40;;
60831;SDS011;46665;51.558;-0.448;2022-09-30T16:08:53;3.70;;;0.50;;
60831;SDS011;46665;51.558;-0.448;2022-09-30T16:12:30;1.90;;;0.63;;
60831;SDS011;46665;51.558;-0.448;2022-09-30T16:15:05;8.20;;;0.95;;
60831;SDS011;46665;51.558;-0.448;2022-09-30T16:17:55;2.67;;;0.40;;
60831;SDS011;46665;51.558;-0.448;2022-09-30T16:20:40;1.65;;;0.55;;
60831;SDS011;46665;51.558;-0.448;2022-09-30T16:23:38;0.47;;;0.40;;
60831;SDS011;46665;51.558;-0.448;2022-09-30T16:26:27;0.57;;;0.40;;
60831;SDS011;46665;51.558;-0.448;2022-09-30T16:29:12;0.28;;;0.28;;
60831;SDS011;46665;51.558;-0.448;2022-09-30T16:31:56;0.30;;;0.30;;
60831;SDS011;46665;51.558;-0.448;2022-09-30T16:34:40;0.57;;;0.30;;
60831;SDS011;46665;51.558;-0.448;2022-09-30T16:37:24;0.20;;;0.20;;
60831;SDS011;46665;51.558;-0.448;2022-09-30T16:40:14;0.40;;;0.20;;
60831;SDS011;46665;51.558;-0.448;2022-09-30T16:43:03;0.32;;;0.32;;
60831;SDS011;46665;51.558;-0.448;2022-09-30T16:45:47;4.57;;;0.32;;
60831;SDS011;46665;51.558;-0.448;2022-09-30T16:48:31;0.38;;;0.38;;
60831;SDS011;46665;51.558;-0.448;2022-09-30T16:51:17;4.90;;;0.60;;
60831;SDS011;46665;51.558;-0.448;2022-09-30T16:54:08;1.08;;;0.45;;
60831;SDS011;46665;51.558;-0.448;2022-09-30T16:56:55;2.65;;;0.40;;
60831;SDS011;46665;51.558;-0.448;2022-09-30T16:59:42;4.35;;;0.85;;
60831;SDS011;46665;51.558;-0.448;2022-09-30T17:02:26;9.23;;;0.55;;
60831;SDS011;46665;51.558;-0.448;2022-09-30T17:05:20;0.30;;;0.20;;
60831;SDS011;46665;51.558;-0.448;2022-09-30T17:08:07;3.13;;;0.75;;
60831;SDS011;46665;51.558;-0.448;2022-09-30T17:10:55;0.82;;;0.50;;
60831;SDS011;46665;51.558;-0.448;2022-09-30T17:13:42;3.40;;;0.22;;
60831;SDS011;46665;51.558;-0.448;2022-09-30T17:16:26;0.30;;;0.30;;
60831;SDS011;46665;51.558;-0.448;2022-09-30T17:19:10;6.13;;;0.60;;
60831;SDS011;46665;51.558;-0.448;2022-09-30T17:21:55;2.50;;;1.15;;
60831;SDS011;46665;51.558;-0.448;2022-09-30T17:24:38;1.55;;;0.45;;
60831;SDS011;46665;51.558;-0.448;2022-09-30T17:27:29;8.02;;;0.40;;
60831;SDS011;46665;51.558;-0.448;2022-09-30T17:30:13;1.75;;;0.80;;
60831;SDS011;46665;51.558;-0.448;2022-09-30T17:32:58;7.45;;;0.40;;
60831;SDS011;46665;51.558;-0.448;2022-09-30T17:35:43;0.30;;;0.30;;
60831;SDS011;46665;51.558;-0.448;2022-09-30T17:38:28;1.20;;;0.50;;
60831;SDS011;46665;51.558;-0.448;2022-09-30T17:41:14;0.25;;;0.10;;
60831;SDS011;46665;51.558;-0.448;2022-09-30T17:44:18;2.08;;;0.25;;
60831;SDS011;46665;51.558;-0.448;2022-09-30T17:47:02;7.22;;;0.20;;
60831;SDS011;46665;51.558;-0.448;2022-09-30T17:49:47;0.95;;;0.40;;
60831;SDS011;46665;51.558;-0.448;2022-09-30T17:52:31;2.22;;;0.40;;
60831;SDS011;46665;51.558;-0.448;2022-09-30T17:55:17;3.85;;;0.55;;
60831;SDS011;46665;51.558;-0.448;2022-09-30T17:58:01;1.45;;;0.22;;
60831;SDS011;46665;51.558;-0.448;2022-09-30T18:01:06;0.30;;;0.30;;
60831;SDS011;46665;51.558;-0.448;2022-09-30T18:03:56;1.30;;;0.30;;
60831;SDS011;46665;51.558;-0.448;2022-09-30T18:06:41;2.92;;;0.15;;
60831;SDS011;46665;51.558;-0.448;2022-09-30T18:09:25;0.22;;;0.22;;
60831;SDS011;46665;51.558;-0.448;2022-09-30T18:12:09;0.17;;;0.10;;
60831;SDS011;46665;51.558;-0.448;2022-09-30T18:14:53;0.13;;;0.10;;
60831;SDS011;46665;51.558;-0.448;2022-09-30T18:17:38;0.20;;;0.10;;
60831;SDS011;46665;51.558;-0.448;2022-09-30T18:20:28;0.10;;;0.10;;
60831;SDS011;46665;51.558;-0.448;2022-09-30T18:23:12;4.10;;;0.20;;
60831;SDS011;46665;51.558;-0.448;2022-09-30T18:25:59;0.10;;;0.10;;
60831;SDS011;46665;51.558;-0.448;2022-09-30T18:28:50;0.10;;;0.10;;
60831;SDS011;46665;51.558;-0.448;2022-09-30T18:31:35;0.03;;;0.03;;
60831;SDS011;46665;51.558;-0.448;2022-09-30T18:34:20;0.90;;;0.63;;
60831;SDS011;46665;51.558;-0.448;2022-09-30T18:37:06;0.20;;;0.17;;
60831;SDS011;46665;51.558;-0.448;2022-09-30T18:39:52;0.80;;;0.55;;
60831;SDS011;46665;51.558;-0.448;2022-09-30T18:42:36;0.10;;;0.10;;
60831;SDS011;46665;51.558;-0.448;2022-09-30T18:45:20;0.40;;;0.40;;
60831;SDS011;46665;51.558;-0.448;2022-09-30T18:48:06;0.20;;;0.10;;
60831;SDS011;46665;51.558;-0.448;2022-09-30T18:50:51;0.10;;;0.10;;
60831;SDS011;46665;51.558;-0.448;2022-09-30T18:53:36;1.15;;;0.63;;
60831;SDS011;46665;51.558;-0.448;2022-09-30T18:56:21;0.65;;;0.45;;
60831;SDS011;46665;51.558;-0.448;2022-09-30T19:01:58;0.00;;;0.00;;
60831;SDS011;46665;51.558;-0.448;2022-09-30T19:04:43;0.20;;;0.20;;
60831;SDS011;46665;51.558;-0.448;2022-09-30T19:07:28;1.27;;;0.13;;
60831;SDS011;46665;51.558;-0.448;2022-09-30T19:10:12;0.10;;;0.10;;
60831;SDS011;46665;51.558;-0.448;2022-09-30T19:12:56;0.13;;;0.13;;
60831;SDS011;46665;51.558;-0.448;2022-09-30T19:15:49;0.28;;;0.15;;
60831;SDS011;46665;51.558;-0.448;2022-09-30T19:21:09;0.15;;;0.15;;
60831;SDS011;46665;51.558;-0.448;2022-09-30T19:23:56;0.40;;;0.17;;
60831;SDS011;46665;51.558;-0.448;2022-09-30T19:26:41;0.10;;;0.10;;
60831;SDS011;46665;51.558;-0.448;2022-09-30T19:29:25;0.15;;;0.15;;
60831;SDS011;46665;51.558;-0.448;2022-09-30T19:32:09;0.30;;;0.30;;
60831;SDS011;46665;51.558;-0.448;2022-09-30T19:34:55;0.20;;;0.20;;
60831;SDS011;46665;51.558;-0.448;2022-09-30T19:37:41;0.10;;;0.10;;
60831;SDS011;46665;51.558;-0.448;2022-09-30T19:40:26;0.00;;;0.00;;
60831;SDS011;46665;51.558;-0.448;2022-09-30T19:43:14;0.00;;;0.00;;
60831;SDS011;46665;51.558;-0.448;2022-09-30T19:46:02;0.32;;;0.13;;
60831;SDS011;46665;51.558;-0.448;2022-09-30T19:48:48;0.10;;;0.10;;
60831;SDS011;46665;51.558;-0.448;2022-09-30T19:51:31;0.13;;;0.13;;
60831;SDS011;46665;51.558;-0.448;2022-09-30T19:54:21;0.13;;;0.13;;
60831;SDS011;46665;51.558;-0.448;2022-09-30T19:57:06;0.10;;;0.10;;
60831;SDS011;46665;51.558;-0.448;2022-09-30T19:59:52;0.10;;;0.10;;
60831;SDS011;46665;51.558;-0.448;2022-09-30T20:02:36;0.10;;;0.10;;
60831;SDS011;46665;51.558;-0.448;2022-09-30T20:05:20;0.10;;;0.10;;
60831;SDS011;46665;51.558;-0.448;2022-09-30T20:08:11;0.90;;;0.20;;
60831;SDS011;46665;51.558;-0.448;2022-09-30T20:14:11;0.10;;;0.10;;